Sakarya, Turkey
Current Conditions -  °F | °C
As of 1:50 PM on Thursday 18 Dec 2014 (Local Time) from LTBQ Reporting Station
Broken Clouds Broken Clouds  
Wind Chill: 14°   Ceiling: 8000
Heat Index: 14°   Visibility: 6mi
Dew Point:   Wind: 6mph
Humidity: 72%   Direction: 260°W
Pressure: 29.97"   Gusts: NA
Location:  40.75°N, 30.45°E
Report Text: LTBQ 181050Z 26005KT 220V310 9999 SCT035 BKN080 14/09 Q1015 NOSIG
Loading
Personal Weather Stations






























Interactive Weather Map New forecast layout! Learn more

10-Day Weather Forecast

Advertisements
Track Severe Weather on mobile